createdAt,value
2023-01-18T00:02:00.784Z,8.53
2023-01-18T00:04:28.025Z,11.80
2023-01-18T00:06:56.586Z,12.17
2023-01-18T00:09:23.881Z,14.23
2023-01-18T00:11:51.126Z,16.23
2023-01-18T00:14:19.348Z,27.07
2023-01-18T00:16:46.603Z,20.03
2023-01-18T00:19:13.930Z,19.60
2023-01-18T00:21:41.227Z,21.90
2023-01-18T00:24:14.208Z,20.87
2023-01-18T00:26:42.752Z,19.30
2023-01-18T00:29:09.989Z,27.97
2023-01-18T00:31:38.422Z,28.23
2023-01-18T00:34:05.892Z,19.97
2023-01-18T00:36:33.536Z,25.40
2023-01-18T00:39:00.957Z,25.40
2023-01-18T00:41:28.268Z,25.80
2023-01-18T00:43:55.571Z,22.00
2023-01-18T00:46:24.607Z,27.27
2023-01-18T00:48:54.054Z,25.00
2023-01-18T00:51:23.440Z,25.43
2023-01-18T00:53:51.090Z,32.07
2023-01-18T00:56:21.160Z,27.63
2023-01-18T00:58:48.646Z,24.70
2023-01-18T01:01:16.390Z,25.20
2023-01-18T01:04:01.673Z,27.43
2023-01-18T01:06:44.877Z,27.83
2023-01-18T01:09:14.396Z,24.47
2023-01-18T01:12:02.858Z,27.17
2023-01-18T01:14:48.802Z,29.10
2023-01-18T01:17:34.527Z,25.27
2023-01-18T01:20:19.837Z,23.20
2023-01-18T01:23:05.881Z,34.20
2023-01-18T01:25:51.279Z,27.70
2023-01-18T01:28:18.625Z,31.73
2023-01-18T01:30:45.938Z,36.87
2023-01-18T01:33:13.280Z,28.03
2023-01-18T01:35:40.525Z,32.83
2023-01-18T01:38:08.445Z,24.13
2023-01-18T01:40:35.757Z,20.40
2023-01-18T01:43:03.026Z,22.97
2023-01-18T01:45:32.207Z,20.83
2023-01-18T01:47:59.742Z,30.27
2023-01-18T01:50:31.185Z,40.03
2023-01-18T01:52:58.780Z,25.23
2023-01-18T01:55:31.112Z,24.57
2023-01-18T01:58:03.141Z,29.60
2023-01-18T02:00:30.510Z,23.40
2023-01-18T02:03:01.232Z,28.57
2023-01-18T02:05:30.098Z,24.37
2023-01-18T02:08:00.204Z,23.30
2023-01-18T02:10:29.079Z,23.03
2023-01-18T02:12:58.228Z,23.80
2023-01-18T02:15:34.252Z,28.17
2023-01-18T02:18:18.875Z,19.63
2023-01-18T02:21:09.069Z,25.17
2023-01-18T02:24:06.135Z,25.57
2023-01-18T02:27:11.208Z,28.87
2023-01-18T02:30:14.773Z,25.47
2023-01-18T02:33:01.176Z,28.07
2023-01-18T02:35:39.358Z,23.50
2023-01-18T02:38:12.329Z,19.70
2023-01-18T02:41:00.132Z,24.43
2023-01-18T02:43:46.236Z,23.17
2023-01-18T02:46:39.637Z,23.83
2023-01-18T02:49:09.945Z,20.93
2023-01-18T02:51:38.005Z,18.87
2023-01-18T02:54:08.174Z,15.30
2023-01-18T02:56:40.846Z,76.90
2023-01-18T02:59:12.537Z,94.37
2023-01-18T03:01:43.778Z,27.33
2023-01-18T03:04:16.655Z,16.20
2023-01-18T03:06:47.525Z,18.30
2023-01-18T03:09:17.994Z,16.37
2023-01-18T03:11:54.466Z,14.20
2023-01-18T03:14:31.069Z,22.27
2023-01-18T03:17:05.648Z,19.63
2023-01-18T03:19:58.547Z,13.10
2023-01-18T03:22:41.988Z,12.80
2023-01-18T03:25:12.701Z,48.43
2023-01-18T03:28:00.137Z,14.47
2023-01-18T03:30:47.207Z,14.27
2023-01-18T03:33:34.768Z,22.47
2023-01-18T03:36:04.233Z,17.83
2023-01-18T03:38:33.146Z,14.87
2023-01-18T03:41:02.499Z,16.93
2023-01-18T03:43:35.791Z,16.80
2023-01-18T03:46:03.500Z,19.00
2023-01-18T03:48:32.123Z,16.60
2023-01-18T03:51:08.866Z,16.20
2023-01-18T03:53:42.387Z,20.00
2023-01-18T03:56:13.738Z,22.17
2023-01-18T03:58:41.797Z,16.43
2023-01-18T04:01:09.187Z,16.93
2023-01-18T04:03:37.458Z,15.50
2023-01-18T04:06:05.994Z,18.67
2023-01-18T04:08:33.277Z,19.77
2023-01-18T04:11:00.535Z,21.23
2023-01-18T04:13:27.877Z,16.97
2023-01-18T04:15:55.178Z,17.63
2023-01-18T04:18:22.505Z,49.37
2023-01-18T04:20:55.538Z,30.87
2023-01-18T04:23:23.440Z,48.83
2023-01-18T04:25:51.173Z,20.47
2023-01-18T04:28:24.552Z,35.63
2023-01-18T04:30:52.046Z,17.37
2023-01-18T04:33:20.244Z,17.20
2023-01-18T04:35:48.031Z,24.03
2023-01-18T04:38:16.289Z,17.00
2023-01-18T04:40:43.641Z,25.17
2023-01-18T04:43:10.917Z,14.23
2023-01-18T04:45:38.532Z,17.57
2023-01-18T04:48:06.190Z,19.77
2023-01-18T04:50:33.474Z,21.87
2023-01-18T04:53:01.065Z,18.17
2023-01-18T04:55:29.233Z,17.30
2023-01-18T04:57:56.740Z,14.70
2023-01-18T05:00:24.580Z,13.57
2023-01-18T05:02:51.879Z,15.90
2023-01-18T05:05:19.223Z,10.20
2023-01-18T05:07:46.481Z,15.50
2023-01-18T05:10:14.373Z,10.03
2023-01-18T05:12:42.287Z,14.97
2023-01-18T05:15:10.435Z,16.83
2023-01-18T05:17:37.725Z,13.53
2023-01-18T05:20:07.101Z,19.33
2023-01-18T05:22:36.137Z,15.33
2023-01-18T05:25:03.715Z,48.10
2023-01-18T05:27:30.941Z,11.97
2023-01-18T05:29:59.218Z,19.03
2023-01-18T05:32:26.432Z,18.13
2023-01-18T05:34:53.768Z,21.87
2023-01-18T05:37:21.107Z,16.90
2023-01-18T05:39:48.371Z,17.63
2023-01-18T05:42:15.605Z,15.00
2023-01-18T05:44:42.826Z,14.30
2023-01-18T05:47:10.748Z,15.67
2023-01-18T05:49:38.726Z,21.93
2023-01-18T05:52:07.688Z,20.97
2023-01-18T05:54:35.029Z,15.60
2023-01-18T05:57:02.329Z,17.17
2023-01-18T05:59:29.614Z,18.87
2023-01-18T06:01:56.943Z,20.60
2023-01-18T06:04:24.945Z,11.73
2023-01-18T06:06:52.227Z,18.70
2023-01-18T06:09:19.404Z,17.10
2023-01-18T06:11:46.759Z,17.20
2023-01-18T06:14:14.072Z,17.07
2023-01-18T06:16:41.383Z,14.47
2023-01-18T06:19:08.761Z,13.40
2023-01-18T06:21:36.788Z,36.50
2023-01-18T06:24:04.579Z,17.50
2023-01-18T06:26:31.810Z,8.00
2023-01-18T06:28:59.066Z,8.03
2023-01-18T06:31:26.320Z,9.73
2023-01-18T06:33:53.589Z,21.07
2023-01-18T06:36:20.854Z,17.80
2023-01-18T06:38:48.814Z,18.17
2023-01-18T06:41:16.440Z,7.97
2023-01-18T06:43:43.674Z,17.03
2023-01-18T06:46:10.916Z,19.83
2023-01-18T06:48:38.310Z,15.37
2023-01-18T06:51:05.686Z,14.53
2023-01-18T06:53:33.063Z,11.30
2023-01-18T06:56:01.640Z,15.90
2023-01-18T06:58:30.343Z,15.43
2023-01-18T07:00:58.456Z,14.00
2023-01-18T07:03:27.582Z,8.83
2023-01-18T07:05:55.305Z,8.97
2023-01-18T07:08:22.989Z,5.07
2023-01-18T07:10:51.816Z,9.80
2023-01-18T07:13:20.047Z,14.03
2023-01-18T07:15:53.384Z,13.07
2023-01-18T07:18:20.628Z,14.63
2023-01-18T07:20:56.039Z,19.23
2023-01-18T07:23:23.327Z,13.37
2023-01-18T07:25:57.372Z,17.60
2023-01-18T07:28:25.284Z,13.53
2023-01-18T07:30:52.504Z,19.30
2023-01-18T07:33:19.737Z,12.03
2023-01-18T07:35:47.193Z,20.27
2023-01-18T07:38:14.451Z,13.67
2023-01-18T07:40:41.769Z,10.37
2023-01-18T07:43:09.022Z,9.70
2023-01-18T07:45:37.243Z,15.00
2023-01-18T07:48:04.794Z,26.13
2023-01-18T07:50:33.390Z,65.57
2023-01-18T07:53:03.832Z,29.63
2023-01-18T07:55:32.242Z,45.80
2023-01-18T07:58:00.144Z,33.63
2023-01-18T08:00:28.161Z,30.80
2023-01-18T08:02:59.031Z,48.13
2023-01-18T08:05:29.001Z,33.07
2023-01-18T08:07:56.208Z,59.03
2023-01-18T08:10:26.302Z,37.43
2023-01-18T08:12:53.567Z,30.53
2023-01-18T08:15:20.914Z,26.13
2023-01-18T08:17:50.407Z,19.00
2023-01-18T08:20:20.128Z,19.43
2023-01-18T08:22:47.553Z,19.17
2023-01-18T08:25:16.662Z,22.50
2023-01-18T08:27:43.950Z,49.13
2023-01-18T08:30:12.145Z,20.60
2023-01-18T08:32:39.445Z,90.93
2023-01-18T08:35:08.701Z,39.80
2023-01-18T08:37:42.148Z,33.63
2023-01-18T08:40:10.927Z,24.37
2023-01-18T08:42:38.195Z,23.40
2023-01-18T08:45:06.649Z,19.27
2023-01-18T08:47:33.857Z,19.27
2023-01-18T08:50:01.094Z,14.90
2023-01-18T08:52:29.261Z,23.07
2023-01-18T08:54:57.154Z,28.87
2023-01-18T08:57:24.400Z,18.10
2023-01-18T08:59:51.719Z,22.97
2023-01-18T09:02:18.999Z,27.00
2023-01-18T09:04:47.884Z,25.13
2023-01-18T09:07:15.245Z,19.70
2023-01-18T09:09:44.095Z,24.87
2023-01-18T09:12:12.437Z,23.00
2023-01-18T09:14:40.234Z,18.57
2023-01-18T09:17:07.519Z,16.63
2023-01-18T09:19:34.754Z,228.53
2023-01-18T09:22:02.978Z,159.90
2023-01-18T09:24:30.433Z,81.53
2023-01-18T09:26:57.656Z,32.70
2023-01-18T09:29:25.580Z,22.57
2023-01-18T09:31:53.576Z,34.80
2023-01-18T09:34:21.234Z,21.70
2023-01-18T09:36:51.374Z,53.60
2023-01-18T09:39:19.089Z,54.70
2023-01-18T09:41:51.802Z,207.90
2023-01-18T09:44:24.167Z,210.77
2023-01-18T09:46:54.858Z,54.60
2023-01-18T09:49:26.457Z,23.50
2023-01-18T09:52:05.427Z,31.70
2023-01-18T09:54:40.835Z,45.00
2023-01-18T09:57:17.459Z,24.30
2023-01-18T09:59:53.930Z,89.60
2023-01-18T10:02:24.939Z,44.87
2023-01-18T10:04:57.257Z,187.37
2023-01-18T10:07:29.592Z,236.80
2023-01-18T10:10:00.179Z,802.63
2023-01-18T10:12:33.538Z,666.30
2023-01-18T10:15:06.844Z,552.83
2023-01-18T10:17:38.836Z,197.73
2023-01-18T10:20:14.404Z,61.37
2023-01-18T10:22:47.661Z,192.27
2023-01-18T10:25:20.721Z,29.80
2023-01-18T10:28:07.695Z,21.70
2023-01-18T10:30:49.746Z,20.40
2023-01-18T10:33:21.030Z,22.47
2023-01-18T10:35:51.842Z,15.03
2023-01-18T10:38:22.836Z,16.37
2023-01-18T10:40:55.354Z,37.70
2023-01-18T10:43:25.518Z,24.10
2023-01-18T10:45:53.721Z,52.17
2023-01-18T10:48:33.315Z,30.80
2023-01-18T10:51:04.473Z,23.57
2023-01-18T10:53:33.930Z,36.30
2023-01-18T10:56:04.534Z,37.00
2023-01-18T10:58:40.026Z,39.73
2023-01-18T11:01:15.003Z,30.80
2023-01-18T11:03:47.071Z,16.77
2023-01-18T11:06:16.296Z,16.20
2023-01-18T11:08:43.914Z,19.13
2023-01-18T11:11:18.272Z,19.27
2023-01-18T11:13:47.442Z,17.70
2023-01-18T11:16:16.898Z,25.30
2023-01-18T11:19:00.454Z,26.67
2023-01-18T11:21:44.800Z,26.07
2023-01-18T11:24:15.230Z,26.57
2023-01-18T11:26:55.625Z,17.77
2023-01-18T11:29:28.482Z,28.03
2023-01-18T11:32:00.259Z,20.07
2023-01-18T11:34:30.353Z,22.43
2023-01-18T11:36:59.925Z,16.90
2023-01-18T11:39:29.992Z,19.43
2023-01-18T11:42:22.429Z,16.87
2023-01-18T11:45:14.394Z,19.40
2023-01-18T11:47:56.560Z,15.40
2023-01-18T11:50:33.077Z,14.97
2023-01-18T11:53:10.803Z,45.17
2023-01-18T11:55:43.121Z,21.77
2023-01-18T11:58:22.407Z,22.63
2023-01-18T12:01:01.572Z,18.80
2023-01-18T12:03:47.865Z,31.00
2023-01-18T12:06:26.507Z,22.77
2023-01-18T12:09:18.011Z,21.40
2023-01-18T12:12:06.485Z,18.93
2023-01-18T12:14:55.863Z,17.83
2023-01-18T12:17:38.623Z,17.90
2023-01-18T12:20:22.229Z,22.03
2023-01-18T12:23:36.134Z,23.53
2023-01-18T12:26:14.692Z,21.53
2023-01-18T12:29:08.607Z,19.60
2023-01-18T12:31:49.714Z,19.00
2023-01-18T12:34:21.757Z,20.47
2023-01-18T12:37:12.880Z,19.60
2023-01-18T12:39:57.474Z,31.93
2023-01-18T12:42:34.668Z,137.23
2023-01-18T12:45:14.226Z,99.73
2023-01-18T12:47:49.179Z,62.70
2023-01-18T12:50:23.470Z,39.17
2023-01-18T12:52:56.541Z,26.67
2023-01-18T12:55:25.704Z,18.77
2023-01-18T12:57:57.566Z,22.30
2023-01-18T13:00:33.106Z,23.60
2023-01-18T13:03:04.365Z,18.37
2023-01-18T13:05:37.162Z,17.47
2023-01-18T13:08:10.246Z,38.60
2023-01-18T13:10:38.708Z,38.70
2023-01-18T13:13:06.945Z,45.13
2023-01-18T13:15:39.839Z,26.27
2023-01-18T13:18:15.163Z,19.20
2023-01-18T13:20:56.257Z,20.97
2023-01-18T13:23:32.366Z,16.70
2023-01-18T13:26:13.473Z,18.60
2023-01-18T13:28:41.166Z,20.57
2023-01-18T13:31:08.906Z,17.80
2023-01-18T13:33:39.982Z,19.30
2023-01-18T13:36:10.508Z,14.03
2023-01-18T13:38:47.602Z,19.37
2023-01-18T13:41:21.179Z,21.60
2023-01-18T13:44:06.611Z,14.00
2023-01-18T13:46:38.557Z,12.93
2023-01-18T13:49:36.634Z,18.60
2023-01-18T13:52:30.890Z,16.47
2023-01-18T13:55:01.688Z,13.33
2023-01-18T13:57:30.506Z,16.97
2023-01-18T13:59:59.303Z,19.70
2023-01-18T14:02:31.325Z,26.13
2023-01-18T14:05:03.164Z,24.30
2023-01-18T14:07:42.679Z,23.20
2023-01-18T14:10:30.859Z,19.13
2023-01-18T14:13:00.222Z,17.77
2023-01-18T14:15:37.642Z,18.63
2023-01-18T14:18:15.261Z,21.23
2023-01-18T14:21:04.097Z,28.03
2023-01-18T14:24:16.064Z,24.27
2023-01-18T14:26:45.472Z,26.10
2023-01-18T14:29:17.100Z,23.60
2023-01-18T14:31:48.352Z,19.00
2023-01-18T14:34:37.248Z,16.23
2023-01-18T14:37:20.020Z,11.47
2023-01-18T14:40:01.520Z,11.60
2023-01-18T14:42:28.787Z,13.27
2023-01-18T14:44:59.021Z,14.10
2023-01-18T14:47:29.739Z,19.97
2023-01-18T14:49:57.279Z,20.40
2023-01-18T14:52:28.705Z,19.33
2023-01-18T14:54:56.846Z,17.53
2023-01-18T14:57:24.604Z,13.47
2023-01-18T14:59:53.404Z,18.30
2023-01-18T15:02:24.945Z,27.90
2023-01-18T15:05:09.847Z,22.27
2023-01-18T15:07:38.512Z,17.10
2023-01-18T15:10:08.362Z,16.17
2023-01-18T15:12:38.008Z,12.37
2023-01-18T15:15:08.652Z,15.10
2023-01-18T15:17:37.329Z,10.57
2023-01-18T15:20:08.112Z,19.47
2023-01-18T15:22:39.764Z,15.30
2023-01-18T15:25:18.090Z,13.00
2023-01-18T15:27:50.313Z,12.93
2023-01-18T15:30:18.762Z,11.83
2023-01-18T15:32:47.807Z,13.80
2023-01-18T15:35:15.881Z,10.30
2023-01-18T15:37:43.407Z,10.60
2023-01-18T15:40:30.462Z,12.30
2023-01-18T15:43:04.090Z,13.20
2023-01-18T15:45:33.368Z,13.37
2023-01-18T15:48:06.065Z,16.43
2023-01-18T15:50:36.008Z,15.93
2023-01-18T15:53:11.413Z,15.17
2023-01-18T15:55:45.583Z,13.30
2023-01-18T15:58:19.951Z,14.90
2023-01-18T16:00:54.834Z,12.00
2023-01-18T16:03:25.170Z,11.63
2023-01-18T16:06:07.687Z,13.50
2023-01-18T16:08:35.451Z,8.43
2023-01-18T16:11:03.483Z,10.80
2023-01-18T16:13:33.173Z,12.40
2023-01-18T16:16:14.618Z,12.30
2023-01-18T16:18:44.317Z,19.73
2023-01-18T16:21:17.648Z,12.13
2023-01-18T16:23:48.646Z,12.60
2023-01-18T16:26:22.468Z,14.73
2023-01-18T16:28:51.527Z,15.47
2023-01-18T16:31:22.889Z,17.10
2023-01-18T16:33:50.318Z,33.43
2023-01-18T16:36:19.523Z,24.73
2023-01-18T16:38:46.775Z,24.80
2023-01-18T16:41:16.306Z,17.57
2023-01-18T16:43:44.288Z,14.27
2023-01-18T16:46:11.804Z,20.87
2023-01-18T16:48:39.289Z,9.07
2023-01-18T16:51:16.463Z,9.70
2023-01-18T16:53:43.933Z,9.70
2023-01-18T16:56:15.432Z,8.93
2023-01-18T16:58:43.034Z,8.97
2023-01-18T17:01:16.238Z,7.30
2023-01-18T17:03:44.247Z,7.87
2023-01-18T17:06:16.750Z,10.10
2023-01-18T17:08:44.625Z,5.33
2023-01-18T17:11:12.480Z,7.30
2023-01-18T17:13:40.838Z,5.77
2023-01-18T17:16:17.283Z,7.47
2023-01-18T17:18:45.217Z,10.60
2023-01-18T17:21:14.963Z,10.70
2023-01-18T17:23:42.887Z,10.50
2023-01-18T17:26:14.599Z,9.30
2023-01-18T17:28:45.742Z,8.77
2023-01-18T17:31:13.250Z,7.10
2023-01-18T17:33:43.186Z,7.40
2023-01-18T17:36:10.758Z,8.03
2023-01-18T17:38:38.159Z,9.47
2023-01-18T17:41:08.234Z,7.70
2023-01-18T17:43:37.014Z,3.60
2023-01-18T17:46:05.988Z,5.87
2023-01-18T17:48:33.667Z,9.40
2023-01-18T17:51:01.156Z,9.67
2023-01-18T17:53:28.513Z,12.00
2023-01-18T17:55:56.336Z,8.23
2023-01-18T17:58:23.648Z,5.60
2023-01-18T18:00:51.277Z,8.40
2023-01-18T18:03:20.088Z,3.30
2023-01-18T18:05:47.573Z,8.03
2023-01-18T18:08:15.125Z,6.40
2023-01-18T18:10:43.439Z,5.80
2023-01-18T18:13:10.875Z,6.20
2023-01-18T18:15:38.268Z,5.70
2023-01-18T18:18:22.655Z,4.63
2023-01-18T18:20:58.770Z,3.07
2023-01-18T18:23:27.199Z,4.07
2023-01-18T18:25:55.797Z,7.90
2023-01-18T18:28:24.171Z,5.47
2023-01-18T18:30:52.078Z,4.40
2023-01-18T18:33:20.176Z,6.90
2023-01-18T18:35:48.864Z,4.83
2023-01-18T18:38:18.437Z,3.13
2023-01-18T18:40:45.828Z,2.03
2023-01-18T18:43:13.388Z,2.40
2023-01-18T18:45:40.685Z,9.70
2023-01-18T18:48:08.737Z,6.37
2023-01-18T18:50:36.416Z,2.77
2023-01-18T18:53:03.844Z,6.20
2023-01-18T18:55:32.698Z,2.30
2023-01-18T18:58:00.896Z,2.30
2023-01-18T19:00:28.347Z,2.17
2023-01-18T19:02:59.868Z,6.47
2023-01-18T19:05:27.515Z,3.43
2023-01-18T19:07:54.860Z,4.97
2023-01-18T19:10:23.484Z,4.53
2023-01-18T19:12:51.543Z,3.60
2023-01-18T19:15:19.014Z,9.13
2023-01-18T19:17:49.785Z,4.17
2023-01-18T19:20:19.147Z,8.63
2023-01-18T19:22:46.913Z,14.53
2023-01-18T19:25:14.691Z,11.07
2023-01-18T19:27:42.560Z,9.00
2023-01-18T19:30:17.453Z,11.53
2023-01-18T19:32:48.311Z,11.47
2023-01-18T19:35:16.523Z,10.57
2023-01-18T19:37:44.438Z,18.83
2023-01-18T19:40:13.586Z,14.70
2023-01-18T19:42:41.152Z,17.30
2023-01-18T19:45:13.974Z,22.47
2023-01-18T19:47:47.676Z,18.27
2023-01-18T19:50:15.720Z,15.40
2023-01-18T19:52:45.439Z,14.33
2023-01-18T19:55:13.146Z,11.90
2023-01-18T19:57:40.776Z,13.93
2023-01-18T20:00:15.884Z,14.17
2023-01-18T20:02:44.038Z,9.57
2023-01-18T20:05:11.908Z,13.97
2023-01-18T20:07:40.327Z,16.93
2023-01-18T20:10:08.666Z,11.07
2023-01-18T20:12:40.972Z,10.87
2023-01-18T20:15:10.221Z,13.63
2023-01-18T20:17:38.997Z,14.40
2023-01-18T20:20:08.661Z,14.37
2023-01-18T20:22:36.486Z,13.90
2023-01-18T20:25:04.564Z,10.97
2023-01-18T20:27:31.944Z,13.13
2023-01-18T20:29:59.501Z,18.70
2023-01-18T20:32:28.181Z,16.17
2023-01-18T20:34:55.984Z,21.90
2023-01-18T20:37:23.572Z,18.03
2023-01-18T20:39:55.533Z,20.53
2023-01-18T20:42:22.897Z,18.37
2023-01-18T20:44:53.020Z,19.87
2023-01-18T20:47:21.115Z,11.23
2023-01-18T20:49:51.149Z,20.03
2023-01-18T20:52:18.511Z,13.67
2023-01-18T20:54:45.923Z,15.47
2023-01-18T20:57:14.022Z,13.83
2023-01-18T20:59:45.779Z,17.67
2023-01-18T21:02:16.159Z,14.50
2023-01-18T21:04:47.138Z,18.47
2023-01-18T21:07:15.315Z,21.50
2023-01-18T21:09:42.655Z,24.50
2023-01-18T21:12:10.352Z,26.27
2023-01-18T21:14:39.471Z,19.43
2023-01-18T21:17:06.837Z,25.87
2023-01-18T21:19:34.307Z,34.23
2023-01-18T21:22:06.286Z,59.53
2023-01-18T21:24:34.690Z,75.10
2023-01-18T21:27:06.026Z,64.67
2023-01-18T21:29:36.210Z,54.43
2023-01-18T21:32:04.322Z,25.03
2023-01-18T21:34:32.079Z,21.70
2023-01-18T21:36:59.697Z,22.30
2023-01-18T21:39:31.867Z,33.80
2023-01-18T21:42:21.271Z,28.43
2023-01-18T21:45:06.542Z,33.07
2023-01-18T21:47:33.917Z,17.90
2023-01-18T21:50:19.715Z,23.23
2023-01-18T21:53:05.067Z,15.83
2023-01-18T21:55:33.377Z,20.67
2023-01-18T21:58:19.318Z,17.50
2023-01-18T22:00:46.869Z,15.13
2023-01-18T22:03:14.669Z,34.07
2023-01-18T22:05:41.977Z,27.57
2023-01-18T22:08:09.560Z,16.87
2023-01-18T22:10:36.827Z,19.70
2023-01-18T22:13:04.918Z,17.37
2023-01-18T22:15:32.300Z,22.03
2023-01-18T22:18:00.099Z,16.10
2023-01-18T22:20:29.269Z,17.17
2023-01-18T22:22:58.489Z,16.77
2023-01-18T22:25:25.734Z,16.33
2023-01-18T22:27:53.016Z,15.00
2023-01-18T22:30:22.219Z,20.87
2023-01-18T22:32:49.579Z,26.73
2023-01-18T22:35:17.459Z,22.90
2023-01-18T22:37:44.861Z,15.30
2023-01-18T22:40:12.963Z,20.20
2023-01-18T22:42:40.531Z,18.27
2023-01-18T22:45:08.716Z,18.60
2023-01-18T22:47:36.657Z,21.07
2023-01-18T22:50:04.220Z,19.63
2023-01-18T22:52:31.487Z,23.53
2023-01-18T22:54:58.733Z,17.40
2023-01-18T22:57:26.126Z,19.97
2023-01-18T22:59:53.371Z,31.27
2023-01-18T23:02:20.636Z,22.47
2023-01-18T23:04:48.549Z,19.67
2023-01-18T23:07:16.737Z,23.70
2023-01-18T23:09:44.064Z,29.43
2023-01-18T23:12:11.340Z,18.70
2023-01-18T23:14:56.983Z,31.57
2023-01-18T23:17:39.568Z,17.73
2023-01-18T23:20:10.725Z,27.53
2023-01-18T23:22:37.966Z,19.70
2023-01-18T23:25:06.017Z,22.87
2023-01-18T23:27:33.248Z,29.00
2023-01-18T23:30:01.696Z,23.27
2023-01-18T23:32:29.973Z,17.03
2023-01-18T23:34:58.163Z,28.40
2023-01-18T23:37:26.657Z,23.33
2023-01-18T23:40:11.873Z,22.00
2023-01-18T23:42:57.643Z,19.67
2023-01-18T23:45:43.491Z,20.90
2023-01-18T23:48:31.658Z,25.70
2023-01-18T23:51:18.295Z,21.80
2023-01-18T23:54:04.648Z,30.50
2023-01-18T23:56:32.251Z,27.30
2023-01-18T23:58:59.675Z,17.17
